sensor_id;sensor_type;location;lat;lon;timestamp;temperature;humidity
19172;DHT22;9718;52.200;21.052;2023-02-28T00:01:27;-4.20;99.90
19172;DHT22;9718;52.200;21.052;2023-02-28T00:03:54;-4.20;99.90
19172;DHT22;9718;52.200;21.052;2023-02-28T00:06:22;-4.20;99.90
19172;DHT22;9718;52.200;21.052;2023-02-28T00:08:49;-4.20;99.90
19172;DHT22;9718;52.200;21.052;2023-02-28T00:11:16;-4.20;99.90
19172;DHT22;9718;52.200;21.052;2023-02-28T00:13:46;-4.20;99.90
19172;DHT22;9718;52.200;21.052;2023-02-28T00:16:20;-4.30;99.90
19172;DHT22;9718;52.200;21.052;2023-02-28T00:18:48;-4.30;99.90
19172;DHT22;9718;52.200;21.052;2023-02-28T00:21:17;-4.40;99.90
19172;DHT22;9718;52.200;21.052;2023-02-28T00:23:44;-4.50;99.90
19172;DHT22;9718;52.200;21.052;2023-02-28T00:26:11;-4.50;99.90
19172;DHT22;9718;52.200;21.052;2023-02-28T00:28:39;-4.60;99.90
19172;DHT22;9718;52.200;21.052;2023-02-28T00:31:06;-4.60;99.90
19172;DHT22;9718;52.200;21.052;2023-02-28T00:33:33;-4.60;99.90
19172;DHT22;9718;52.200;21.052;2023-02-28T00:36:08;-4.60;99.90
19172;DHT22;9718;52.200;21.052;2023-02-28T00:38:37;-4.60;99.90
19172;DHT22;9718;52.200;21.052;2023-02-28T00:41:05;-4.60;99.90
19172;DHT22;9718;52.200;21.052;2023-02-28T00:43:34;-4.60;99.90
19172;DHT22;9718;52.200;21.052;2023-02-28T00:46:02;-4.60;99.90
19172;DHT22;9718;52.200;21.052;2023-02-28T00:48:29;-4.60;99.90
19172;DHT22;9718;52.200;21.052;2023-02-28T00:50:57;-4.80;99.90
19172;DHT22;9718;52.200;21.052;2023-02-28T00:53:23;-4.90;99.90
19172;DHT22;9718;52.200;21.052;2023-02-28T00:55:51;-5.00;99.90
19172;DHT22;9718;52.200;21.052;2023-02-28T00:58:19;-5.00;99.90
19172;DHT22;9718;52.200;21.052;2023-02-28T01:00:46;-5.00;99.90
19172;DHT22;9718;52.200;21.052;2023-02-28T01:03:19;-5.10;99.90
19172;DHT22;9718;52.200;21.052;2023-02-28T01:05:47;-5.10;99.90
19172;DHT22;9718;52.200;21.052;2023-02-28T01:08:14;-5.10;99.90
19172;DHT22;9718;52.200;21.052;2023-02-28T01:10:42;-5.10;99.90
19172;DHT22;9718;52.200;21.052;2023-02-28T01:13:10;-5.10;99.90
19172;DHT22;9718;52.200;21.052;2023-02-28T01:15:38;-5.10;99.90
19172;DHT22;9718;52.200;21.052;2023-02-28T01:18:07;-5.10;99.90
19172;DHT22;9718;52.200;21.052;2023-02-28T01:20:36;-5.10;99.90
19172;DHT22;9718;52.200;21.052;2023-02-28T01:23:04;-5.10;99.90
19172;DHT22;9718;52.200;21.052;2023-02-28T01:25:34;-5.10;99.90
19172;DHT22;9718;52.200;21.052;2023-02-28T01:28:02;-5.10;99.90
19172;DHT22;9718;52.200;21.052;2023-02-28T01:30:29;-5.20;99.90
19172;DHT22;9718;52.200;21.052;2023-02-28T01:32:56;-5.20;99.90
19172;DHT22;9718;52.200;21.052;2023-02-28T01:35:24;-5.20;99.90
19172;DHT22;9718;52.200;21.052;2023-02-28T01:37:51;-5.20;99.90
19172;DHT22;9718;52.200;21.052;2023-02-28T01:40:19;-5.20;99.90
19172;DHT22;9718;52.200;21.052;2023-02-28T01:42:46;-5.20;99.90
19172;DHT22;9718;52.200;21.052;2023-02-28T01:45:24;-5.20;99.90
19172;DHT22;9718;52.200;21.052;2023-02-28T01:47:55;-5.20;99.90
19172;DHT22;9718;52.200;21.052;2023-02-28T01:50:28;-5.30;99.90
19172;DHT22;9718;52.200;21.052;2023-02-28T01:52:58;-5.30;99.90
19172;DHT22;9718;52.200;21.052;2023-02-28T01:55:28;-5.40;99.90
19172;DHT22;9718;52.200;21.052;2023-02-28T01:57:57;-5.40;99.90
19172;DHT22;9718;52.200;21.052;2023-02-28T02:00:26;-5.40;99.90
19172;DHT22;9718;52.200;21.052;2023-02-28T02:02:58;-5.40;99.90
19172;DHT22;9718;52.200;21.052;2023-02-28T02:05:29;-5.50;99.90
19172;DHT22;9718;52.200;21.052;2023-02-28T02:08:10;-5.50;99.90
19172;DHT22;9718;52.200;21.052;2023-02-28T02:10:52;-5.40;99.90
19172;DHT22;9718;52.200;21.052;2023-02-28T02:38:51;-5.50;99.90
19172;DHT22;9718;52.200;21.052;2023-02-28T02:41:36;-5.60;99.90
19172;DHT22;9718;52.200;21.052;2023-02-28T02:46:42;-5.60;99.90
19172;DHT22;9718;52.200;21.052;2023-02-28T02:49:17;-5.60;99.90
19172;DHT22;9718;52.200;21.052;2023-02-28T02:51:46;-5.50;99.90
19172;DHT22;9718;52.200;21.052;2023-02-28T02:54:19;-5.60;99.90
19172;DHT22;9718;52.200;21.052;2023-02-28T02:56:48;-5.60;99.90
19172;DHT22;9718;52.200;21.052;2023-02-28T02:59:20;-5.60;99.90
19172;DHT22;9718;52.200;21.052;2023-02-28T03:01:55;-5.60;99.90
19172;DHT22;9718;52.200;21.052;2023-02-28T03:04:26;-5.60;99.90
19172;DHT22;9718;52.200;21.052;2023-02-28T03:06:54;-5.50;99.90
19172;DHT22;9718;52.200;21.052;2023-02-28T03:09:22;-5.50;99.90
19172;DHT22;9718;52.200;21.052;2023-02-28T03:11:51;-5.60;99.90
19172;DHT22;9718;52.200;21.052;2023-02-28T03:14:41;-5.60;99.90
19172;DHT22;9718;52.200;21.052;2023-02-28T03:22:51;-5.60;99.90
19172;DHT22;9718;52.200;21.052;2023-02-28T03:25:33;-5.60;99.90
19172;DHT22;9718;52.200;21.052;2023-02-28T03:33:53;-5.60;99.90
19172;DHT22;9718;52.200;21.052;2023-02-28T03:36:28;-5.60;99.90
19172;DHT22;9718;52.200;21.052;2023-02-28T03:38:58;-5.60;99.90
19172;DHT22;9718;52.200;21.052;2023-02-28T03:41:43;-5.70;99.90
19172;DHT22;9718;52.200;21.052;2023-02-28T03:44:24;-5.70;99.90
19172;DHT22;9718;52.200;21.052;2023-02-28T03:46:58;-5.70;99.90
19172;DHT22;9718;52.200;21.052;2023-02-28T03:49:31;-5.70;99.90
19172;DHT22;9718;52.200;21.052;2023-02-28T03:52:02;-5.70;99.90
19172;DHT22;9718;52.200;21.052;2023-02-28T03:54:37;-5.60;99.90
19172;DHT22;9718;52.200;21.052;2023-02-28T03:57:15;-5.60;99.90
19172;DHT22;9718;52.200;21.052;2023-02-28T03:59:48;-5.60;99.90
19172;DHT22;9718;52.200;21.052;2023-02-28T04:02:17;-5.60;99.90
19172;DHT22;9718;52.200;21.052;2023-02-28T04:04:45;-5.60;99.90
19172;DHT22;9718;52.200;21.052;2023-02-28T04:07:16;-5.60;99.90
19172;DHT22;9718;52.200;21.052;2023-02-28T04:09:43;-5.60;99.90
19172;DHT22;9718;52.200;21.052;2023-02-28T04:12:10;-5.60;99.90
19172;DHT22;9718;52.200;21.052;2023-02-28T04:14:38;-5.60;99.90
19172;DHT22;9718;52.200;21.052;2023-02-28T04:17:05;-5.70;99.90
19172;DHT22;9718;52.200;21.052;2023-02-28T04:19:32;-5.60;99.90
19172;DHT22;9718;52.200;21.052;2023-02-28T04:21:59;-5.50;99.90
19172;DHT22;9718;52.200;21.052;2023-02-28T04:24:27;-5.50;99.90
19172;DHT22;9718;52.200;21.052;2023-02-28T04:26:57;-5.50;99.90
19172;DHT22;9718;52.200;21.052;2023-02-28T04:29:27;-5.50;99.90
19172;DHT22;9718;52.200;21.052;2023-02-28T04:31:56;-5.50;99.90
19172;DHT22;9718;52.200;21.052;2023-02-28T04:34:27;-5.50;99.90
19172;DHT22;9718;52.200;21.052;2023-02-28T04:36:55;-5.50;99.90
19172;DHT22;9718;52.200;21.052;2023-02-28T04:39:39;-5.40;99.90
19172;DHT22;9718;52.200;21.052;2023-02-28T04:42:07;-5.40;99.90
19172;DHT22;9718;52.200;21.052;2023-02-28T04:44:34;-5.40;99.90
19172;DHT22;9718;52.200;21.052;2023-02-28T04:47:01;-5.40;99.90
19172;DHT22;9718;52.200;21.052;2023-02-28T04:49:28;-5.40;99.90
19172;DHT22;9718;52.200;21.052;2023-02-28T04:51:55;-5.40;99.90
19172;DHT22;9718;52.200;21.052;2023-02-28T04:54:22;-5.30;99.90
19172;DHT22;9718;52.200;21.052;2023-02-28T04:56:50;-5.30;99.90
19172;DHT22;9718;52.200;21.052;2023-02-28T04:59:17;-5.30;99.90
19172;DHT22;9718;52.200;21.052;2023-02-28T05:01:49;-5.30;99.90
19172;DHT22;9718;52.200;21.052;2023-02-28T05:04:16;-5.30;99.90
19172;DHT22;9718;52.200;21.052;2023-02-28T05:06:44;-5.40;99.90
19172;DHT22;9718;52.200;21.052;2023-02-28T05:09:11;-5.40;99.90
19172;DHT22;9718;52.200;21.052;2023-02-28T05:11:40;-5.50;99.90
19172;DHT22;9718;52.200;21.052;2023-02-28T05:14:11;-5.50;99.90
19172;DHT22;9718;52.200;21.052;2023-02-28T05:16:39;-5.50;99.90
19172;DHT22;9718;52.200;21.052;2023-02-28T05:19:06;-5.40;99.90
19172;DHT22;9718;52.200;21.052;2023-02-28T05:21:36;-5.40;99.90
19172;DHT22;9718;52.200;21.052;2023-02-28T05:24:08;-5.30;99.90
19172;DHT22;9718;52.200;21.052;2023-02-28T05:26:41;-5.20;99.90
19172;DHT22;9718;52.200;21.052;2023-02-28T05:29:09;-5.20;99.90
19172;DHT22;9718;52.200;21.052;2023-02-28T05:31:37;-5.20;99.90
19172;DHT22;9718;52.200;21.052;2023-02-28T05:34:04;-5.20;99.90
19172;DHT22;9718;52.200;21.052;2023-02-28T05:36:31;-5.20;99.90
19172;DHT22;9718;52.200;21.052;2023-02-28T05:38:59;-5.20;99.90
19172;DHT22;9718;52.200;21.052;2023-02-28T05:41:26;-5.10;99.90
19172;DHT22;9718;52.200;21.052;2023-02-28T05:43:54;-5.00;99.90
19172;DHT22;9718;52.200;21.052;2023-02-28T05:46:21;-4.90;99.90
19172;DHT22;9718;52.200;21.052;2023-02-28T05:48:48;-4.80;99.90
19172;DHT22;9718;52.200;21.052;2023-02-28T05:51:16;-4.80;99.90
19172;DHT22;9718;52.200;21.052;2023-02-28T05:53:44;-4.70;99.90
19172;DHT22;9718;52.200;21.052;2023-02-28T05:56:11;-4.70;99.90
19172;DHT22;9718;52.200;21.052;2023-02-28T05:58:38;-4.60;99.90
19172;DHT22;9718;52.200;21.052;2023-02-28T06:01:30;-4.60;99.90
19172;DHT22;9718;52.200;21.052;2023-02-28T06:03:59;-4.40;99.90
19172;DHT22;9718;52.200;21.052;2023-02-28T06:06:27;-4.20;99.90
19172;DHT22;9718;52.200;21.052;2023-02-28T06:08:55;-4.10;99.90
19172;DHT22;9718;52.200;21.052;2023-02-28T06:11:22;-3.90;99.90
19172;DHT22;9718;52.200;21.052;2023-02-28T06:13:55;-3.90;99.90
19172;DHT22;9718;52.200;21.052;2023-02-28T06:16:24;-3.80;99.90
19172;DHT22;9718;52.200;21.052;2023-02-28T06:18:51;-3.80;99.90
19172;DHT22;9718;52.200;21.052;2023-02-28T06:21:19;-3.70;99.90
19172;DHT22;9718;52.200;21.052;2023-02-28T06:23:46;-3.50;99.90
19172;DHT22;9718;52.200;21.052;2023-02-28T06:26:13;-3.40;99.90
19172;DHT22;9718;52.200;21.052;2023-02-28T06:28:41;-3.20;99.90
19172;DHT22;9718;52.200;21.052;2023-02-28T06:31:13;-2.80;99.90
19172;DHT22;9718;52.200;21.052;2023-02-28T06:33:42;-2.10;99.90
19172;DHT22;9718;52.200;21.052;2023-02-28T06:36:11;-1.30;99.90
19172;DHT22;9718;52.200;21.052;2023-02-28T06:38:39;-0.50;99.90
19172;DHT22;9718;52.200;21.052;2023-02-28T06:41:08;0.20;99.90
19172;DHT22;9718;52.200;21.052;2023-02-28T06:43:38;0.90;99.90
19172;DHT22;9718;52.200;21.052;2023-02-28T06:46:08;1.30;99.90
19172;DHT22;9718;52.200;21.052;2023-02-28T06:48:35;1.70;99.90
19172;DHT22;9718;52.200;21.052;2023-02-28T06:51:08;1.90;99.90
19172;DHT22;9718;52.200;21.052;2023-02-28T06:53:36;2.10;99.90
19172;DHT22;9718;52.200;21.052;2023-02-28T06:56:09;2.30;99.90
19172;DHT22;9718;52.200;21.052;2023-02-28T06:58:37;2.50;99.90
19172;DHT22;9718;52.200;21.052;2023-02-28T07:01:05;2.70;99.90
19172;DHT22;9718;52.200;21.052;2023-02-28T07:03:34;2.90;99.90
19172;DHT22;9718;52.200;21.052;2023-02-28T07:06:01;3.00;99.90
19172;DHT22;9718;52.200;21.052;2023-02-28T07:08:29;2.70;99.90
19172;DHT22;9718;52.200;21.052;2023-02-28T07:10:57;2.40;99.90
19172;DHT22;9718;52.200;21.052;2023-02-28T07:13:25;1.80;99.90
19172;DHT22;9718;52.200;21.052;2023-02-28T07:15:56;1.60;99.90
19172;DHT22;9718;52.200;21.052;2023-02-28T07:18:24;1.50;99.90
19172;DHT22;9718;52.200;21.052;2023-02-28T07:20:51;1.50;99.90
19172;DHT22;9718;52.200;21.052;2023-02-28T07:23:18;1.20;99.90
19172;DHT22;9718;52.200;21.052;2023-02-28T07:25:46;1.20;99.90
19172;DHT22;9718;52.200;21.052;2023-02-28T07:28:13;1.10;99.90
19172;DHT22;9718;52.200;21.052;2023-02-28T07:30:41;0.90;99.90
19172;DHT22;9718;52.200;21.052;2023-02-28T07:33:09;0.60;99.90
19172;DHT22;9718;52.200;21.052;2023-02-28T07:35:36;0.30;99.90
19172;DHT22;9718;52.200;21.052;2023-02-28T07:38:03;0.40;99.90
19172;DHT22;9718;52.200;21.052;2023-02-28T07:40:31;1.00;99.90
19172;DHT22;9718;52.200;21.052;2023-02-28T07:43:01;1.80;99.90
19172;DHT22;9718;52.200;21.052;2023-02-28T07:45:30;2.60;99.90
19172;DHT22;9718;52.200;21.052;2023-02-28T07:47:58;3.10;99.90
19172;DHT22;9718;52.200;21.052;2023-02-28T07:50:25;3.90;99.90
19172;DHT22;9718;52.200;21.052;2023-02-28T07:52:54;4.20;99.90
19172;DHT22;9718;52.200;21.052;2023-02-28T07:55:21;4.30;99.90
19172;DHT22;9718;52.200;21.052;2023-02-28T07:57:48;4.60;99.90
19172;DHT22;9718;52.200;21.052;2023-02-28T08:00:16;4.80;99.90
19172;DHT22;9718;52.200;21.052;2023-02-28T08:02:43;5.30;99.90
19172;DHT22;9718;52.200;21.052;2023-02-28T08:05:10;5.90;99.90
19172;DHT22;9718;52.200;21.052;2023-02-28T08:07:37;5.90;99.90
19172;DHT22;9718;52.200;21.052;2023-02-28T08:10:05;5.60;99.90
19172;DHT22;9718;52.200;21.052;2023-02-28T08:12:32;5.40;99.90
19172;DHT22;9718;52.200;21.052;2023-02-28T08:15:00;5.30;99.90
19172;DHT22;9718;52.200;21.052;2023-02-28T08:17:27;5.40;99.90
19172;DHT22;9718;52.200;21.052;2023-02-28T08:19:54;5.20;99.90
19172;DHT22;9718;52.200;21.052;2023-02-28T08:22:21;5.20;99.90
19172;DHT22;9718;52.200;21.052;2023-02-28T08:24:49;5.20;99.90
19172;DHT22;9718;52.200;21.052;2023-02-28T08:27:16;5.60;99.90
19172;DHT22;9718;52.200;21.052;2023-02-28T08:29:44;6.00;99.90
19172;DHT22;9718;52.200;21.052;2023-02-28T08:32:11;6.20;99.90
19172;DHT22;9718;52.200;21.052;2023-02-28T08:34:56;6.10;99.90
19172;DHT22;9718;52.200;21.052;2023-02-28T08:37:23;5.50;99.90
19172;DHT22;9718;52.200;21.052;2023-02-28T08:39:51;4.60;99.90
19172;DHT22;9718;52.200;21.052;2023-02-28T08:42:23;4.10;99.90
19172;DHT22;9718;52.200;21.052;2023-02-28T08:44:50;4.40;99.90
19172;DHT22;9718;52.200;21.052;2023-02-28T08:47:18;4.40;99.90
19172;DHT22;9718;52.200;21.052;2023-02-28T08:49:45;4.90;99.90
19172;DHT22;9718;52.200;21.052;2023-02-28T08:52:13;5.90;99.90
19172;DHT22;9718;52.200;21.052;2023-02-28T08:54:40;6.10;99.90
19172;DHT22;9718;52.200;21.052;2023-02-28T08:57:07;6.20;99.90
19172;DHT22;9718;52.200;21.052;2023-02-28T08:59:34;6.20;99.90
19172;DHT22;9718;52.200;21.052;2023-02-28T09:02:01;6.30;99.90
19172;DHT22;9718;52.200;21.052;2023-02-28T09:04:29;6.40;99.90
19172;DHT22;9718;52.200;21.052;2023-02-28T09:06:58;6.30;99.90
19172;DHT22;9718;52.200;21.052;2023-02-28T09:09:25;6.60;99.90
19172;DHT22;9718;52.200;21.052;2023-02-28T09:11:54;6.80;99.90
19172;DHT22;9718;52.200;21.052;2023-02-28T09:14:22;6.70;99.90
19172;DHT22;9718;52.200;21.052;2023-02-28T09:16:49;6.80;99.90
19172;DHT22;9718;52.200;21.052;2023-02-28T09:19:17;7.20;99.90
19172;DHT22;9718;52.200;21.052;2023-02-28T09:21:44;7.50;99.90
19172;DHT22;9718;52.200;21.052;2023-02-28T09:24:11;7.30;99.90
19172;DHT22;9718;52.200;21.052;2023-02-28T09:26:41;7.10;99.90
19172;DHT22;9718;52.200;21.052;2023-02-28T09:29:13;7.00;99.90
19172;DHT22;9718;52.200;21.052;2023-02-28T09:31:41;6.20;99.90
19172;DHT22;9718;52.200;21.052;2023-02-28T09:34:08;6.00;99.90
19172;DHT22;9718;52.200;21.052;2023-02-28T09:36:35;6.40;99.90
19172;DHT22;9718;52.200;21.052;2023-02-28T09:39:12;6.90;99.90
19172;DHT22;9718;52.200;21.052;2023-02-28T09:41:44;7.20;99.90
19172;DHT22;9718;52.200;21.052;2023-02-28T09:47:01;6.70;99.90
19172;DHT22;9718;52.200;21.052;2023-02-28T09:49:39;6.40;99.90
19172;DHT22;9718;52.200;21.052;2023-02-28T09:52:16;6.70;99.90
19172;DHT22;9718;52.200;21.052;2023-02-28T09:54:46;6.90;99.90
19172;DHT22;9718;52.200;21.052;2023-02-28T09:57:37;7.00;99.90
19172;DHT22;9718;52.200;21.052;2023-02-28T10:00:20;6.70;99.90
19172;DHT22;9718;52.200;21.052;2023-02-28T10:05:54;8.10;99.90
19172;DHT22;9718;52.200;21.052;2023-02-28T10:08:27;7.90;99.90
19172;DHT22;9718;52.200;21.052;2023-02-28T10:10:58;7.70;99.90
19172;DHT22;9718;52.200;21.052;2023-02-28T10:13:38;7.70;99.90
19172;DHT22;9718;52.200;21.052;2023-02-28T10:16:14;7.10;99.90
19172;DHT22;9718;52.200;21.052;2023-02-28T10:18:51;7.50;99.90
19172;DHT22;9718;52.200;21.052;2023-02-28T10:24:04;8.00;99.90
19172;DHT22;9718;52.200;21.052;2023-02-28T10:26:32;8.10;99.90
19172;DHT22;9718;52.200;21.052;2023-02-28T10:29:00;8.00;99.90
19172;DHT22;9718;52.200;21.052;2023-02-28T10:31:27;7.60;99.90
19172;DHT22;9718;52.200;21.052;2023-02-28T10:33:55;7.40;99.90
19172;DHT22;9718;52.200;21.052;2023-02-28T10:36:22;7.10;99.90
19172;DHT22;9718;52.200;21.052;2023-02-28T10:38:50;7.20;99.90
19172;DHT22;9718;52.200;21.052;2023-02-28T10:41:31;7.10;99.90
19172;DHT22;9718;52.200;21.052;2023-02-28T10:44:20;7.70;99.90
19172;DHT22;9718;52.200;21.052;2023-02-28T10:46:49;7.60;99.90
19172;DHT22;9718;52.200;21.052;2023-02-28T10:49:20;8.10;99.90
19172;DHT22;9718;52.200;21.052;2023-02-28T10:51:52;8.40;99.90
19172;DHT22;9718;52.200;21.052;2023-02-28T10:54:38;7.40;99.90
19172;DHT22;9718;52.200;21.052;2023-02-28T10:59:36;7.50;99.90
19172;DHT22;9718;52.200;21.052;2023-02-28T11:04:56;7.50;99.90
19172;DHT22;9718;52.200;21.052;2023-02-28T11:07:25;7.30;99.90
19172;DHT22;9718;52.200;21.052;2023-02-28T11:10:16;7.60;99.90
19172;DHT22;9718;52.200;21.052;2023-02-28T11:12:45;7.40;99.90
19172;DHT22;9718;52.200;21.052;2023-02-28T11:15:24;7.00;99.90
19172;DHT22;9718;52.200;21.052;2023-02-28T11:18:01;6.80;99.90
19172;DHT22;9718;52.200;21.052;2023-02-28T11:20:30;7.20;99.90
19172;DHT22;9718;52.200;21.052;2023-02-28T11:23:01;7.70;99.90
19172;DHT22;9718;52.200;21.052;2023-02-28T11:25:32;8.00;99.90
19172;DHT22;9718;52.200;21.052;2023-02-28T11:28:03;8.20;99.90
19172;DHT22;9718;52.200;21.052;2023-02-28T11:30:39;8.30;99.90
19172;DHT22;9718;52.200;21.052;2023-02-28T11:33:27;8.80;99.90
19172;DHT22;9718;52.200;21.052;2023-02-28T11:36:00;8.90;99.90
19172;DHT22;9718;52.200;21.052;2023-02-28T11:38:29;8.90;99.90
19172;DHT22;9718;52.200;21.052;2023-02-28T11:46:56;8.00;99.90
19172;DHT22;9718;52.200;21.052;2023-02-28T12:01:38;7.10;99.90
19172;DHT22;9718;52.200;21.052;2023-02-28T12:04:41;6.70;99.90
19172;DHT22;9718;52.200;21.052;2023-02-28T12:24:44;7.30;99.90
19172;DHT22;9718;52.200;21.052;2023-02-28T12:27:13;6.40;99.90
19172;DHT22;9718;52.200;21.052;2023-02-28T12:29:58;6.00;99.90
19172;DHT22;9718;52.200;21.052;2023-02-28T12:32:48;5.50;99.90
19172;DHT22;9718;52.200;21.052;2023-02-28T12:35:59;5.50;99.90
19172;DHT22;9718;52.200;21.052;2023-02-28T12:38:47;5.60;99.90
19172;DHT22;9718;52.200;21.052;2023-02-28T12:44:15;5.10;99.90
19172;DHT22;9718;52.200;21.052;2023-02-28T12:46:48;4.70;99.90
19172;DHT22;9718;52.200;21.052;2023-02-28T12:49:22;4.60;99.90
19172;DHT22;9718;52.200;21.052;2023-02-28T12:51:52;4.80;99.90
19172;DHT22;9718;52.200;21.052;2023-02-28T12:54:29;5.20;99.90
19172;DHT22;9718;52.200;21.052;2023-02-28T12:57:22;5.40;99.90
19172;DHT22;9718;52.200;21.052;2023-02-28T13:00:02;5.30;99.90
19172;DHT22;9718;52.200;21.052;2023-02-28T13:10:50;5.20;99.90
19172;DHT22;9718;52.200;21.052;2023-02-28T13:13:24;5.20;99.90
19172;DHT22;9718;52.200;21.052;2023-02-28T13:16:07;5.00;99.90
19172;DHT22;9718;52.200;21.052;2023-02-28T13:18:39;5.10;99.90
19172;DHT22;9718;52.200;21.052;2023-02-28T13:21:23;5.30;99.90
19172;DHT22;9718;52.200;21.052;2023-02-28T13:23:58;5.50;99.90
19172;DHT22;9718;52.200;21.052;2023-02-28T13:39:48;4.70;99.90
19172;DHT22;9718;52.200;21.052;2023-02-28T13:47:40;4.90;99.90
19172;DHT22;9718;52.200;21.052;2023-02-28T14:06:53;4.00;99.90
19172;DHT22;9718;52.200;21.052;2023-02-28T14:11:51;3.90;99.90
19172;DHT22;9718;52.200;21.052;2023-02-28T14:17:16;3.90;99.90
19172;DHT22;9718;52.200;21.052;2023-02-28T14:19:45;3.90;99.90
19172;DHT22;9718;52.200;21.052;2023-02-28T14:22:56;4.00;99.90
19172;DHT22;9718;52.200;21.052;2023-02-28T14:28:46;3.80;99.90
19172;DHT22;9718;52.200;21.052;2023-02-28T14:31:34;3.60;99.90
19172;DHT22;9718;52.200;21.052;2023-02-28T14:36:45;3.60;99.90
19172;DHT22;9718;52.200;21.052;2023-02-28T14:39:20;3.60;99.90
19172;DHT22;9718;52.200;21.052;2023-02-28T14:41:48;3.50;99.90
19172;DHT22;9718;52.200;21.052;2023-02-28T14:44:21;3.60;99.90
19172;DHT22;9718;52.200;21.052;2023-02-28T14:46:53;3.60;99.90
19172;DHT22;9718;52.200;21.052;2023-02-28T14:49:27;3.50;99.90
19172;DHT22;9718;52.200;21.052;2023-02-28T14:52:24;3.40;99.90
19172;DHT22;9718;52.200;21.052;2023-02-28T14:54:56;3.30;99.90
19172;DHT22;9718;52.200;21.052;2023-02-28T14:57:26;3.20;99.90
19172;DHT22;9718;52.200;21.052;2023-02-28T15:00:22;3.20;99.90
19172;DHT22;9718;52.200;21.052;2023-02-28T15:02:50;3.20;99.90
19172;DHT22;9718;52.200;21.052;2023-02-28T15:05:33;3.20;99.90
19172;DHT22;9718;52.200;21.052;2023-02-28T15:08:15;3.20;99.90
19172;DHT22;9718;52.200;21.052;2023-02-28T15:10:49;3.20;99.90
19172;DHT22;9718;52.200;21.052;2023-02-28T15:13:17;3.10;99.90
19172;DHT22;9718;52.200;21.052;2023-02-28T15:15:59;3.10;99.90
19172;DHT22;9718;52.200;21.052;2023-02-28T15:21:11;3.00;99.90
19172;DHT22;9718;52.200;21.052;2023-02-28T15:23:41;3.00;99.90
19172;DHT22;9718;52.200;21.052;2023-02-28T15:26:15;2.90;99.90
19172;DHT22;9718;52.200;21.052;2023-02-28T15:28:43;3.00;99.90
19172;DHT22;9718;52.200;21.052;2023-02-28T15:31:28;2.90;99.90
19172;DHT22;9718;52.200;21.052;2023-02-28T15:34:06;2.90;99.90
19172;DHT22;9718;52.200;21.052;2023-02-28T15:36:34;2.90;99.90
19172;DHT22;9718;52.200;21.052;2023-02-28T15:39:22;2.80;99.90
19172;DHT22;9718;52.200;21.052;2023-02-28T15:41:50;2.70;99.90
19172;DHT22;9718;52.200;21.052;2023-02-28T15:44:28;2.60;99.90
19172;DHT22;9718;52.200;21.052;2023-02-28T15:47:03;2.50;99.90
19172;DHT22;9718;52.200;21.052;2023-02-28T15:49:47;2.40;99.90
19172;DHT22;9718;52.200;21.052;2023-02-28T15:52:39;2.30;99.90
19172;DHT22;9718;52.200;21.052;2023-02-28T15:55:17;2.40;99.90
19172;DHT22;9718;52.200;21.052;2023-02-28T15:57:48;2.30;99.90
19172;DHT22;9718;52.200;21.052;2023-02-28T16:00:20;2.20;99.90
19172;DHT22;9718;52.200;21.052;2023-02-28T16:02:49;2.20;99.90
19172;DHT22;9718;52.200;21.052;2023-02-28T16:05:29;2.10;99.90
19172;DHT22;9718;52.200;21.052;2023-02-28T16:08:10;2.00;99.90
19172;DHT22;9718;52.200;21.052;2023-02-28T16:10:38;1.90;99.90
19172;DHT22;9718;52.200;21.052;2023-02-28T16:13:06;2.00;99.90
19172;DHT22;9718;52.200;21.052;2023-02-28T16:15:38;2.00;99.90
19172;DHT22;9718;52.200;21.052;2023-02-28T16:18:12;1.90;99.90
19172;DHT22;9718;52.200;21.052;2023-02-28T16:20:40;1.60;99.90
19172;DHT22;9718;52.200;21.052;2023-02-28T16:23:08;1.70;99.90
19172;DHT22;9718;52.200;21.052;2023-02-28T16:25:40;1.70;99.90
19172;DHT22;9718;52.200;21.052;2023-02-28T16:28:36;1.60;99.90
19172;DHT22;9718;52.200;21.052;2023-02-28T16:31:02;1.50;99.90
19172;DHT22;9718;52.200;21.052;2023-02-28T16:33:31;1.40;99.90
19172;DHT22;9718;52.200;21.052;2023-02-28T16:35:59;1.40;99.90
19172;DHT22;9718;52.200;21.052;2023-02-28T16:38:26;1.40;99.90
19172;DHT22;9718;52.200;21.052;2023-02-28T16:40:56;1.30;99.90
19172;DHT22;9718;52.200;21.052;2023-02-28T16:43:26;1.30;99.90
19172;DHT22;9718;52.200;21.052;2023-02-28T16:45:57;1.20;99.90
19172;DHT22;9718;52.200;21.052;2023-02-28T16:48:27;1.20;99.90
19172;DHT22;9718;52.200;21.052;2023-02-28T16:50:54;1.20;99.90
19172;DHT22;9718;52.200;21.052;2023-02-28T16:53:22;1.00;99.90
19172;DHT22;9718;52.200;21.052;2023-02-28T16:55:49;1.00;99.90
19172;DHT22;9718;52.200;21.052;2023-02-28T16:58:17;0.90;99.90
19172;DHT22;9718;52.200;21.052;2023-02-28T17:00:46;0.90;99.90
19172;DHT22;9718;52.200;21.052;2023-02-28T17:03:22;1.00;99.90
19172;DHT22;9718;52.200;21.052;2023-02-28T17:06:00;1.10;99.90
19172;DHT22;9718;52.200;21.052;2023-02-28T17:08:27;1.30;99.90
19172;DHT22;9718;52.200;21.052;2023-02-28T17:10:56;1.30;99.90
19172;DHT22;9718;52.200;21.052;2023-02-28T17:13:23;1.20;99.90
19172;DHT22;9718;52.200;21.052;2023-02-28T17:15:50;1.10;99.90
19172;DHT22;9718;52.200;21.052;2023-02-28T17:18:19;0.90;99.90
19172;DHT22;9718;52.200;21.052;2023-02-28T17:20:48;0.70;99.90
19172;DHT22;9718;52.200;21.052;2023-02-28T17:23:16;0.60;99.90
19172;DHT22;9718;52.200;21.052;2023-02-28T17:25:43;0.80;99.90
19172;DHT22;9718;52.200;21.052;2023-02-28T17:28:24;0.90;99.90
19172;DHT22;9718;52.200;21.052;2023-02-28T17:30:51;0.70;99.90
19172;DHT22;9718;52.200;21.052;2023-02-28T17:33:18;0.60;99.90
19172;DHT22;9718;52.200;21.052;2023-02-28T17:35:45;0.40;99.90
19172;DHT22;9718;52.200;21.052;2023-02-28T17:38:18;0.60;99.90
19172;DHT22;9718;52.200;21.052;2023-02-28T17:40:45;0.90;99.90
19172;DHT22;9718;52.200;21.052;2023-02-28T17:43:13;0.90;99.90
19172;DHT22;9718;52.200;21.052;2023-02-28T17:45:41;0.90;99.90
19172;DHT22;9718;52.200;21.052;2023-02-28T17:48:11;0.70;99.90
19172;DHT22;9718;52.200;21.052;2023-02-28T17:50:38;0.60;99.90
19172;DHT22;9718;52.200;21.052;2023-02-28T17:53:06;0.50;99.90
19172;DHT22;9718;52.200;21.052;2023-02-28T17:55:33;0.30;99.90
19172;DHT22;9718;52.200;21.052;2023-02-28T17:58:02;0.10;99.90
19172;DHT22;9718;52.200;21.052;2023-02-28T18:00:30;0.00;99.90
19172;DHT22;9718;52.200;21.052;2023-02-28T18:03:00;-0.10;99.90
19172;DHT22;9718;52.200;21.052;2023-02-28T18:05:27;-0.20;99.90
19172;DHT22;9718;52.200;21.052;2023-02-28T18:07:56;-0.40;99.90
19172;DHT22;9718;52.200;21.052;2023-02-28T18:10:23;-0.20;99.90
19172;DHT22;9718;52.200;21.052;2023-02-28T18:12:52;-0.10;99.90
19172;DHT22;9718;52.200;21.052;2023-02-28T18:15:21;0.00;99.90
19172;DHT22;9718;52.200;21.052;2023-02-28T18:17:49;0.10;99.90
19172;DHT22;9718;52.200;21.052;2023-02-28T18:20:17;0.10;99.90
19172;DHT22;9718;52.200;21.052;2023-02-28T18:22:45;0.00;99.90
19172;DHT22;9718;52.200;21.052;2023-02-28T18:25:13;0.00;99.90
19172;DHT22;9718;52.200;21.052;2023-02-28T18:27:44;0.00;99.90
19172;DHT22;9718;52.200;21.052;2023-02-28T18:30:21;0.00;99.90
19172;DHT22;9718;52.200;21.052;2023-02-28T18:32:48;0.10;99.90
19172;DHT22;9718;52.200;21.052;2023-02-28T18:35:15;0.10;99.90